Time;durP1;ratioP1;P1;durP2;ratioP2;P2;SDS_P1;SDS_P2;PMS_P1;PMS_P2;Temp;Humidity;BMP_temperature;BMP_pressure;BME280_temperature;BME280_humidity;BME280_pressure;Samples;Min_cycle;Max_cycle;Signal;HPM_P1;HPM_P2
2023/06/07 00:01:37;;;;;;;2.92;2.38;;;15.60;64.00;;;;;;5001293;28;20500;-62
2023/06/07 00:04:03;;;;;;;9.88;2.28;;;15.60;64.10;;;;;;5004990;28;20402;-61
2023/06/07 00:06:28;;;;;;;2.42;2.22;;;15.60;64.30;;;;;;5003068;28;20030;-62
2023/06/07 00:08:55;;;;;;;2.63;2.03;;;15.50;64.20;;;;;;5007011;28;20073;-62
2023/06/07 00:11:21;;;;;;;3.13;2.08;;;15.50;64.20;;;;;;5004555;28;20092;-62
2023/06/07 00:13:50;;;;;;;2.20;2.00;;;15.50;65.20;;;;;;5006767;28;20504;-62
2023/06/07 00:16:16;;;;;;;2.83;2.10;;;15.50;64.60;;;;;;5004421;28;20030;-60
2023/06/07 00:18:41;;;;;;;2.50;2.10;;;15.50;64.40;;;;;;5003206;28;20389;-62
2023/06/07 00:21:08;;;;;;;2.30;2.10;;;15.50;64.50;;;;;;5004265;28;20079;-62
2023/06/07 00:23:35;;;;;;;2.53;2.03;;;15.50;64.60;;;;;;5001659;28;20046;-60
2023/06/07 00:26:01;;;;;;;3.00;1.98;;;15.50;64.60;;;;;;5006641;28;20034;-62
2023/06/07 00:28:27;;;;;;;2.47;2.20;;;15.50;64.60;;;;;;5006463;28;20045;-62
2023/06/07 00:30:52;;;;;;;2.58;2.28;;;15.40;64.60;;;;;;5003225;28;20424;-62
2023/06/07 00:33:20;;;;;;;2.60;2.40;;;15.40;64.80;;;;;;5002419;28;20037;-62
2023/06/07 00:35:46;;;;;;;3.05;2.15;;;15.30;65.20;;;;;;5002663;28;20038;-62
2023/06/07 00:38:12;;;;;;;2.85;2.22;;;15.20;65.20;;;;;;5006180;28;20050;-62
2023/06/07 00:40:37;;;;;;;2.50;2.30;;;15.10;65.40;;;;;;5003662;28;20065;-62
2023/06/07 00:43:03;;;;;;;2.90;2.20;;;15.10;65.70;;;;;;5006751;28;20037;-62
2023/06/07 00:45:28;;;;;;;3.13;2.10;;;15.00;65.80;;;;;;5008185;28;20033;-62
2023/06/07 00:47:55;;;;;;;3.50;2.15;;;14.90;66.00;;;;;;5007701;28;20034;-62
2023/06/07 00:50:21;;;;;;;4.45;2.03;;;14.90;66.20;;;;;;5005478;28;20046;-60
2023/06/07 00:52:46;;;;;;;2.97;2.20;;;14.80;66.50;;;;;;5004542;28;21747;-61
2023/06/07 00:55:13;;;;;;;2.20;2.05;;;14.80;66.80;;;;;;5004332;28;20121;-62
2023/06/07 00:57:40;;;;;;;2.53;1.90;;;14.70;66.80;;;;;;5005247;28;20068;-62
2023/06/07 01:00:09;;;;;;;2.10;1.77;;;14.70;66.70;;;;;;5003680;28;20555;-61
2023/06/07 01:02:35;;;;;;;2.58;2.00;;;14.70;66.80;;;;;;5001498;28;20045;-62
2023/06/07 01:05:02;;;;;;;3.60;2.20;;;14.80;66.70;;;;;;5004645;28;20091;-62
2023/06/07 01:07:28;;;;;;;2.75;2.10;;;14.80;66.70;;;;;;5003494;28;20500;-61
2023/06/07 01:09:54;;;;;;;2.75;2.20;;;14.80;66.60;;;;;;5003658;28;20038;-62
2023/06/07 01:12:22;;;;;;;2.30;2.17;;;14.80;66.60;;;;;;5004865;28;20064;-62
2023/06/07 01:14:48;;;;;;;5.30;2.60;;;14.70;66.50;;;;;;5004448;28;20387;-62
2023/06/07 01:17:16;;;;;;;2.60;2.40;;;14.70;66.60;;;;;;5006210;28;20037;-62
2023/06/07 01:19:43;;;;;;;3.13;2.15;;;14.70;66.70;;;;;;5003138;28;20036;-62
2023/06/07 01:22:10;;;;;;;3.10;2.50;;;14.70;66.60;;;;;;4988297;28;20409;-62
2023/06/07 01:24:37;;;;;;;2.60;2.40;;;14.70;66.60;;;;;;5004467;28;20042;-62
2023/06/07 01:27:07;;;;;;;2.72;2.15;;;14.60;66.80;;;;;;5006007;28;20449;-62
2023/06/07 01:29:33;;;;;;;3.78;2.60;;;14.50;67.10;;;;;;5003694;28;20034;-63
2023/06/07 01:32:01;;;;;;;3.78;2.30;;;14.50;67.00;;;;;;5009085;28;20199;-63
2023/06/07 01:34:28;;;;;;;2.63;2.38;;;14.50;67.40;;;;;;5003461;28;20255;-62
2023/06/07 01:36:55;;;;;;;2.85;2.65;;;14.40;67.40;;;;;;5005036;28;20045;-62
2023/06/07 01:39:22;;;;;;;3.38;2.55;;;14.40;67.60;;;;;;5006847;28;20324;-60
2023/06/07 01:41:51;;;;;;;3.67;2.53;;;14.40;67.80;;;;;;5004685;28;20077;-61
2023/06/07 01:44:17;;;;;;;2.70;2.50;;;14.30;68.10;;;;;;5005689;28;20026;-63
2023/06/07 01:46:44;;;;;;;2.65;2.35;;;14.20;68.10;;;;;;5005464;28;20121;-61
2023/06/07 01:49:09;;;;;;;2.95;2.65;;;14.10;68.30;;;;;;4999507;28;20092;-62
2023/06/07 01:51:35;;;;;;;3.95;2.65;;;14.10;68.60;;;;;;5005248;28;20046;-62
2023/06/07 01:54:01;;;;;;;3.33;2.55;;;14.00;68.80;;;;;;5003748;28;20084;-62
2023/06/07 01:56:39;;;;;;;2.75;2.55;;;14.00;69.20;;;;;;5005631;28;20542;-62
2023/06/07 01:59:29;;;;;;;2.22;2.13;;;13.90;69.40;;;;;;5005496;28;20509;-62
2023/06/07 02:02:01;;;;;;;3.00;2.67;;;13.90;70.90;;;;;;5005723;28;20355;-62
2023/06/07 02:04:30;;;;;;;2.72;2.53;;;13.80;69.90;;;;;;5003350;28;20144;-63
2023/06/07 02:07:02;;;;;;;2.78;2.30;;;13.70;69.70;;;;;;5004112;28;20184;-62
2023/06/07 02:09:29;;;;;;;2.35;2.17;;;13.70;70.00;;;;;;5002104;28;20034;-62
2023/06/07 02:11:55;;;;;;;3.53;2.42;;;13.70;69.70;;;;;;5005369;28;20121;-62
2023/06/07 02:14:21;;;;;;;2.58;2.38;;;13.70;69.80;;;;;;4979778;28;20121;-62
2023/06/07 02:16:48;;;;;;;2.92;2.58;;;13.70;69.80;;;;;;5004181;28;20125;-62
2023/06/07 02:19:16;;;;;;;2.70;2.50;;;13.80;69.90;;;;;;5004036;28;20056;-62
2023/06/07 02:21:42;;;;;;;2.67;2.47;;;13.70;69.80;;;;;;5003869;28;20037;-60
2023/06/07 02:24:07;;;;;;;2.80;2.60;;;13.80;69.70;;;;;;5004114;28;20037;-62
2023/06/07 02:26:33;;;;;;;2.95;2.65;;;13.70;69.60;;;;;;5003031;28;20045;-62
2023/06/07 02:28:59;;;;;;;3.50;2.75;;;13.70;69.50;;;;;;5004088;28;20037;-61
2023/06/07 02:31:26;;;;;;;2.78;2.58;;;13.70;69.50;;;;;;5005253;28;20046;-62
2023/06/07 02:33:52;;;;;;;2.65;2.45;;;13.70;69.80;;;;;;5004560;28;20124;-62
2023/06/07 02:36:24;;;;;;;2.63;2.42;;;13.70;69.80;;;;;;5003464;28;20044;-62
2023/06/07 02:38:50;;;;;;;2.70;2.50;;;13.70;69.80;;;;;;5001608;28;20515;-61
2023/06/07 02:41:15;;;;;;;8.73;2.65;;;13.70;69.90;;;;;;5001696;28;20117;-62
2023/06/07 02:43:43;;;;;;;4.40;2.70;;;13.70;69.90;;;;;;5003605;28;20038;-62
2023/06/07 02:46:09;;;;;;;3.17;2.75;;;13.60;70.00;;;;;;5004020;28;20061;-62
2023/06/07 02:48:35;;;;;;;2.95;2.70;;;13.60;70.20;;;;;;5003887;28;20180;-62
2023/06/07 02:51:01;;;;;;;3.47;2.75;;;13.60;70.20;;;;;;5002537;28;20095;-62
2023/06/07 02:53:27;;;;;;;3.85;2.67;;;13.60;70.30;;;;;;5001137;28;20500;-62
2023/06/07 02:55:52;;;;;;;3.92;2.88;;;13.60;70.30;;;;;;5001995;28;20065;-62
2023/06/07 02:58:18;;;;;;;2.65;2.42;;;13.50;70.30;;;;;;5003676;28;20058;-60
2023/06/07 03:00:46;;;;;;;3.17;2.88;;;13.50;70.50;;;;;;5001784;28;20026;-61
2023/06/07 03:03:12;;;;;;;2.83;2.63;;;13.40;70.50;;;;;;5003773;28;20382;-62
2023/06/07 03:05:40;;;;;;;2.90;2.70;;;13.40;70.60;;;;;;5002977;28;20026;-62
2023/06/07 03:08:10;;;;;;;3.30;2.72;;;13.30;70.60;;;;;;5003152;28;20034;-62
2023/06/07 03:10:36;;;;;;;2.78;2.58;;;13.30;70.70;;;;;;4999831;28;20044;-62
2023/06/07 03:13:02;;;;;;;3.42;2.88;;;13.30;70.80;;;;;;5003129;28;20033;-61
2023/06/07 03:15:28;;;;;;;2.92;2.72;;;13.30;70.90;;;;;;5002754;28;20030;-62
2023/06/07 03:17:54;;;;;;;3.22;2.80;;;13.30;70.90;;;;;;5001119;28;20026;-62
2023/06/07 03:20:20;;;;;;;2.53;2.20;;;13.30;70.90;;;;;;5002247;28;20045;-62
2023/06/07 03:22:46;;;;;;;2.95;2.75;;;13.30;70.90;;;;;;4999072;28;20037;-62
2023/06/07 03:25:12;;;;;;;2.83;2.63;;;13.30;70.80;;;;;;5002730;28;20121;-62
2023/06/07 03:27:37;;;;;;;3.38;3.08;;;13.40;70.70;;;;;;5001787;28;20030;-62
2023/06/07 03:30:05;;;;;;;3.00;2.80;;;13.40;70.70;;;;;;5000062;28;20501;-62
2023/06/07 03:32:30;;;;;;;2.90;2.60;;;13.40;70.70;;;;;;4997815;28;20056;-62
2023/06/07 03:34:56;;;;;;;3.30;3.00;;;13.40;70.60;;;;;;5003594;28;20060;-62
2023/06/07 03:37:21;;;;;;;4.10;2.78;;;13.40;70.40;;;;;;5006581;28;20057;-62
2023/06/07 03:39:47;;;;;;;3.42;3.15;;;13.40;70.40;;;;;;5007132;28;20041;-61
2023/06/07 03:42:12;;;;;;;4.95;3.20;;;13.30;70.60;;;;;;5006015;28;20061;-62
2023/06/07 03:44:38;;;;;;;2.83;2.63;;;13.30;70.70;;;;;;5005371;28;20037;-62
2023/06/07 03:47:04;;;;;;;3.15;2.92;;;13.20;70.90;;;;;;5007176;28;20501;-62
2023/06/07 03:49:29;;;;;;;5.57;3.15;;;13.20;71.20;;;;;;5005497;28;20038;-62
2023/06/07 03:51:55;;;;;;;3.90;3.33;;;13.10;71.40;;;;;;4987671;28;20034;-62
2023/06/07 03:54:21;;;;;;;3.75;3.33;;;13.10;71.60;;;;;;5006834;28;20213;-62
2023/06/07 03:56:46;;;;;;;3.55;3.25;;;13.10;71.80;;;;;;5006586;28;20133;-62
2023/06/07 03:59:13;;;;;;;4.00;3.60;;;13.10;71.80;;;;;;5006526;28;20026;-62
2023/06/07 04:01:39;;;;;;;4.45;3.20;;;13.10;71.20;;;;;;5005280;28;20034;-62
2023/06/07 04:04:05;;;;;;;3.50;3.10;;;13.10;71.80;;;;;;5005519;28;20113;-62
2023/06/07 04:06:31;;;;;;;3.15;2.90;;;13.10;71.90;;;;;;5005025;28;20030;-62
2023/06/07 04:08:57;;;;;;;3.47;3.28;;;13.10;72.00;;;;;;5005521;28;20409;-62
2023/06/07 04:11:24;;;;;;;4.10;3.28;;;13.20;72.00;;;;;;5002299;28;20049;-62
2023/06/07 04:13:50;;;;;;;3.50;3.20;;;13.20;72.00;;;;;;5006734;28;20041;-61
2023/06/07 04:16:15;;;;;;;2.95;2.75;;;13.20;71.90;;;;;;5006742;28;20038;-62
2023/06/07 04:18:41;;;;;;;3.15;2.85;;;13.30;71.80;;;;;;5003895;28;20509;-63
2023/06/07 04:21:07;;;;;;;5.05;3.20;;;13.30;71.70;;;;;;5001534;28;20137;-62
2023/06/07 04:23:33;;;;;;;3.28;2.97;;;13.40;71.80;;;;;;5005954;28;20421;-62
2023/06/07 04:25:59;;;;;;;3.20;2.92;;;13.40;71.60;;;;;;5006699;28;20088;-62
2023/06/07 04:28:27;;;;;;;4.80;3.25;;;13.50;72.50;;;;;;5004939;28;20034;-62
2023/06/07 04:30:53;;;;;;;3.50;3.20;;;13.60;71.60;;;;;;5003259;28;20041;-62
2023/06/07 04:33:20;;;;;;;4.82;3.30;;;13.60;71.60;;;;;;5006409;28;20042;-61
2023/06/07 04:35:48;;;;;;;4.07;3.60;;;13.70;71.60;;;;;;5005561;28;20030;-60
2023/06/07 04:38:16;;;;;;;3.28;3.08;;;13.70;71.70;;;;;;5002698;28;20034;-60
2023/06/07 04:40:42;;;;;;;7.78;3.65;;;13.70;71.50;;;;;;4999844;28;20034;-62
2023/06/07 04:43:10;;;;;;;4.15;3.70;;;13.70;71.80;;;;;;5003131;28;20148;-60
2023/06/07 04:45:40;;;;;;;4.15;3.75;;;13.70;72.00;;;;;;5001097;28;20357;-61
2023/06/07 04:48:07;;;;;;;3.67;3.38;;;13.70;72.10;;;;;;5001199;28;20520;-62
2023/06/07 04:50:33;;;;;;;6.10;3.97;;;13.70;72.40;;;;;;5002976;28;20125;-62
2023/06/07 04:53:03;;;;;;;4.55;3.95;;;13.70;72.60;;;;;;5003884;28;20042;-62
2023/06/07 04:55:34;;;;;;;4.30;3.90;;;13.70;72.90;;;;;;5002284;28;20084;-62
2023/06/07 04:58:04;;;;;;;4.30;3.90;;;13.70;73.30;;;;;;5004318;28;20548;-63
2023/06/07 05:00:30;;;;;;;4.07;3.70;;;13.70;73.30;;;;;;5002175;28;20129;-62
2023/06/07 05:02:58;;;;;;;6.05;4.28;;;13.70;73.40;;;;;;5003026;28;20034;-62
2023/06/07 05:05:24;;;;;;;4.70;4.28;;;13.80;73.70;;;;;;5003709;28;20049;-62
2023/06/07 05:07:49;;;;;;;4.50;4.10;;;13.90;73.90;;;;;;5002242;28;20497;-62
2023/06/07 05:10:18;;;;;;;4.43;4.00;;;13.90;74.00;;;;;;5001992;28;20529;-62
2023/06/07 05:12:44;;;;;;;4.35;3.97;;;14.00;74.30;;;;;;5000170;28;20113;-62
2023/06/07 05:15:11;;;;;;;4.50;4.10;;;14.10;74.00;;;;;;5002867;28;20045;-62
2023/06/07 05:17:38;;;;;;;7.10;3.67;;;14.10;74.10;;;;;;5000270;28;20066;-61
2023/06/07 05:20:10;;;;;;;4.60;4.20;;;14.20;74.20;;;;;;4999341;28;20425;-62
2023/06/07 05:22:38;;;;;;;6.85;4.20;;;14.40;74.30;;;;;;5003244;28;20036;-62
2023/06/07 05:25:04;;;;;;;4.63;4.22;;;14.40;74.10;;;;;;5004254;28;20108;-62
2023/06/07 05:27:30;;;;;;;5.80;4.07;;;14.60;73.90;;;;;;5003332;28;20045;-62
2023/06/07 05:29:55;;;;;;;4.47;4.07;;;14.60;73.60;;;;;;5001656;28;20037;-61
2023/06/07 05:32:21;;;;;;;4.53;4.10;;;14.80;73.60;;;;;;5000543;28;20448;-62
2023/06/07 05:34:48;;;;;;;6.53;4.70;;;14.90;73.40;;;;;;5001824;28;20119;-62
2023/06/07 05:37:14;;;;;;;11.45;4.15;;;15.00;73.50;;;;;;5004055;28;20030;-62
2023/06/07 05:39:45;;;;;;;4.72;4.28;;;15.10;73.50;;;;;;5004579;28;20103;-62
2023/06/07 05:42:11;;;;;;;4.68;4.25;;;15.10;73.50;;;;;;5006136;28;20038;-62
2023/06/07 05:44:37;;;;;;;4.60;4.20;;;15.20;73.50;;;;;;5005549;28;20088;-62
2023/06/07 05:47:03;;;;;;;4.68;4.28;;;15.30;73.50;;;;;;5006651;28;20034;-62
2023/06/07 05:49:28;;;;;;;4.68;4.28;;;15.40;73.50;;;;;;5007085;28;20310;-62
2023/06/07 05:51:54;;;;;;;7.65;5.40;;;15.60;73.50;;;;;;5007273;28;20060;-60
2023/06/07 05:54:20;;;;;;;5.25;4.85;;;15.70;74.00;;;;;;5003096;28;20033;-62
2023/06/07 05:56:45;;;;;;;7.72;5.45;;;15.80;73.40;;;;;;5001517;28;20442;-60
2023/06/07 05:59:11;;;;;;;5.65;5.20;;;15.90;73.40;;;;;;5002929;28;20026;-61
2023/06/07 06:01:37;;;;;;;6.65;5.22;;;16.00;73.20;;;;;;4998569;28;20516;-62
2023/06/07 06:04:03;;;;;;;5.60;5.10;;;16.10;73.20;;;;;;5002109;28;20037;-62
2023/06/07 06:06:28;;;;;;;6.20;5.25;;;16.20;73.30;;;;;;5000246;28;20034;-62
2023/06/07 06:08:54;;;;;;;5.15;4.70;;;16.20;73.20;;;;;;5003481;28;20567;-62
2023/06/07 06:11:20;;;;;;;6.53;5.20;;;16.30;73.10;;;;;;5002149;28;20483;-62
2023/06/07 06:13:48;;;;;;;6.07;5.43;;;16.40;73.00;;;;;;4999314;28;20069;-62
2023/06/07 06:16:14;;;;;;;5.65;5.07;;;16.50;73.00;;;;;;5000464;28;20037;-61
2023/06/07 06:18:41;;;;;;;9.48;5.47;;;16.50;72.80;;;;;;5000681;28;20306;-62
2023/06/07 06:21:07;;;;;;;6.68;5.30;;;16.70;73.00;;;;;;4998993;28;20045;-61
2023/06/07 06:23:32;;;;;;;6.63;5.93;;;16.70;72.80;;;;;;5003251;28;20046;-62
2023/06/07 06:25:58;;;;;;;5.85;5.30;;;16.80;72.80;;;;;;5002643;28;20042;-60
2023/06/07 06:28:24;;;;;;;6.45;5.50;;;16.90;72.60;;;;;;5000449;28;20053;-62
2023/06/07 06:30:50;;;;;;;6.50;5.28;;;17.00;72.60;;;;;;4998885;28;20064;-62
2023/06/07 06:33:16;;;;;;;6.25;5.65;;;17.00;72.60;;;;;;4984983;28;20160;-62
2023/06/07 06:35:41;;;;;;;5.90;5.40;;;17.20;72.50;;;;;;4997942;28;20081;-62
2023/06/07 06:38:07;;;;;;;5.93;5.43;;;17.20;72.50;;;;;;5001809;28;20046;-61
2023/06/07 06:40:32;;;;;;;5.53;5.03;;;17.30;72.30;;;;;;5001733;28;20413;-62
2023/06/07 06:43:00;;;;;;;6.20;5.50;;;17.40;72.30;;;;;;4968326;28;20071;-62
2023/06/07 06:45:26;;;;;;;6.05;5.50;;;17.50;72.20;;;;;;4993589;28;20069;-62
2023/06/07 06:47:52;;;;;;;6.22;5.72;;;17.60;72.00;;;;;;4992142;28;20156;-62
2023/06/07 06:50:17;;;;;;;6.35;5.47;;;17.70;71.90;;;;;;5000237;28;20417;-62
2023/06/07 06:52:43;;;;;;;6.32;5.72;;;17.80;71.80;;;;;;4984912;28;20052;-62
2023/06/07 06:55:09;;;;;;;6.45;5.85;;;17.90;71.80;;;;;;4993586;28;20112;-62
2023/06/07 06:57:35;;;;;;;6.43;5.88;;;17.90;71.60;;;;;;4990730;28;20200;-62
2023/06/07 07:00:10;;;;;;;6.70;5.78;;;18.00;71.40;;;;;;4994806;28;20046;-62
2023/06/07 07:02:36;;;;;;;6.43;5.53;;;18.10;71.40;;;;;;4999423;28;20465;-62
2023/06/07 07:05:05;;;;;;;6.28;5.70;;;18.10;71.30;;;;;;4998772;28;20041;-62
2023/06/07 07:07:31;;;;;;;8.98;6.20;;;18.10;71.10;;;;;;4999213;28;20057;-61
2023/06/07 07:09:57;;;;;;;6.90;6.30;;;18.20;71.50;;;;;;4996481;28;20034;-62
2023/06/07 07:12:23;;;;;;;6.75;6.07;;;18.30;71.60;;;;;;4999550;28;20030;-62
2023/06/07 07:14:49;;;;;;;6.50;5.88;;;18.30;71.60;;;;;;4998034;28;20038;-62
2023/06/07 07:17:15;;;;;;;7.63;6.05;;;18.40;71.40;;;;;;4995527;28;20072;-62
2023/06/07 07:19:41;;;;;;;6.65;5.97;;;18.60;71.30;;;;;;4989385;28;20129;-61
2023/06/07 07:22:06;;;;;;;7.00;6.35;;;18.70;71.10;;;;;;4996555;28;20057;-62
2023/06/07 07:24:32;;;;;;;7.25;6.55;;;18.70;71.20;;;;;;4991782;28;20397;-62
2023/06/07 07:26:58;;;;;;;6.20;5.60;;;18.80;70.90;;;;;;4999462;28;20038;-62
2023/06/07 07:29:24;;;;;;;10.75;6.57;;;18.80;71.00;;;;;;4996630;28;20042;-62
2023/06/07 07:31:49;;;;;;;7.20;6.07;;;18.90;70.70;;;;;;4994810;28;20425;-62
2023/06/07 07:34:15;;;;;;;5.78;5.28;;;19.00;70.50;;;;;;4993659;28;20042;-62
2023/06/07 07:36:43;;;;;;;5.57;5.07;;;19.10;70.20;;;;;;4991738;28;20057;-62
2023/06/07 07:39:11;;;;;;;5.13;4.70;;;19.20;70.10;;;;;;4996176;28;20038;-62
2023/06/07 07:41:37;;;;;;;6.75;5.00;;;19.30;69.90;;;;;;4996338;28;20034;-62
2023/06/07 07:44:03;;;;;;;5.75;5.25;;;19.40;69.80;;;;;;4998396;28;20033;-62
2023/06/07 07:46:29;;;;;;;5.70;5.20;;;19.50;69.60;;;;;;4998171;28;20049;-62
2023/06/07 07:48:55;;;;;;;5.30;4.80;;;19.60;69.30;;;;;;4998177;28;20041;-62
2023/06/07 07:51:21;;;;;;;5.53;4.95;;;19.70;69.00;;;;;;4993943;28;20046;-63
2023/06/07 07:53:47;;;;;;;6.15;4.40;;;19.80;68.60;;;;;;4999851;28;20119;-62
2023/06/07 07:56:12;;;;;;;6.00;5.20;;;19.90;68.30;;;;;;4998191;28;20413;-62
2023/06/07 07:58:38;;;;;;;5.38;4.88;;;20.00;67.80;;;;;;4995352;28;20449;-62
2023/06/07 08:01:04;;;;;;;7.32;3.92;;;20.10;67.80;;;;;;4987458;28;20091;-61
2023/06/07 08:03:30;;;;;;;4.80;4.22;;;20.20;67.20;;;;;;4991324;28;20042;-62
2023/06/07 08:05:56;;;;;;;8.35;3.90;;;20.30;66.90;;;;;;4999762;28;20037;-61
2023/06/07 08:08:21;;;;;;;4.47;4.05;;;20.40;66.90;;;;;;4998087;28;20046;-61
2023/06/07 08:10:47;;;;;;;4.47;3.70;;;20.60;66.50;;;;;;5001914;28;20046;-61
2023/06/07 08:13:14;;;;;;;3.70;3.40;;;20.70;65.80;;;;;;4998387;28;20048;-61
2023/06/07 08:15:40;;;;;;;3.90;3.53;;;20.80;64.50;;;;;;5002320;28;20030;-62
2023/06/07 08:18:06;;;;;;;5.93;4.28;;;20.80;64.00;;;;;;4988328;28;20039;-62
2023/06/07 08:20:32;;;;;;;5.75;3.85;;;20.90;63.40;;;;;;4996528;28;20521;-62
2023/06/07 08:22:57;;;;;;;4.30;3.65;;;21.00;63.60;;;;;;4980541;28;20038;-60
2023/06/07 08:25:23;;;;;;;3.92;3.53;;;21.00;63.50;;;;;;4995921;28;20042;-62
2023/06/07 08:27:48;;;;;;;6.32;4.07;;;21.20;64.30;;;;;;4998384;28;20472;-62
2023/06/07 08:30:14;;;;;;;5.15;4.43;;;21.30;63.30;;;;;;5001317;28;20504;-62
2023/06/07 08:32:41;;;;;;;4.03;3.53;;;21.40;62.20;;;;;;4992585;28;20466;-61
2023/06/07 08:35:07;;;;;;;3.75;3.13;;;21.50;62.10;;;;;;4994897;28;20045;-62
2023/06/07 08:37:33;;;;;;;3.33;2.70;;;21.60;61.80;;;;;;4997380;28;20134;-62
2023/06/07 08:39:59;;;;;;;3.30;3.00;;;21.70;60.90;;;;;;4987717;28;20573;-63
2023/06/07 08:42:25;;;;;;;3.65;2.90;;;21.80;60.60;;;;;;4999110;28;20452;-60
2023/06/07 08:44:50;;;;;;;4.35;3.15;;;22.00;60.50;;;;;;4999977;28;20038;-62
2023/06/07 08:47:17;;;;;;;3.25;2.95;;;22.10;59.90;;;;;;5001725;28;20034;-62
2023/06/07 08:49:46;;;;;;;3.58;3.20;;;22.20;59.80;;;;;;5000109;28;20042;-62
2023/06/07 08:52:12;;;;;;;3.92;3.00;;;22.30;59.10;;;;;;4997390;28;20046;-63
2023/06/07 08:54:43;;;;;;;2.97;2.60;;;22.50;58.40;;;;;;5000693;28;20104;-63
2023/06/07 08:57:10;;;;;;;2.63;2.42;;;22.60;57.70;;;;;;4999612;28;20026;-62
2023/06/07 08:59:37;;;;;;;4.72;2.20;;;22.70;57.90;;;;;;4996150;28;20022;-62
2023/06/07 09:02:04;;;;;;;3.85;2.58;;;22.80;57.60;;;;;;4995712;28;20030;-62
2023/06/07 09:04:30;;;;;;;2.45;2.25;;;22.80;57.50;;;;;;4997714;28;20535;-62
2023/06/07 09:06:56;;;;;;;4.63;2.35;;;23.00;57.40;;;;;;5004136;28;20037;-62
2023/06/07 09:09:21;;;;;;;2.28;2.05;;;23.10;56.90;;;;;;5005315;28;20542;-62
2023/06/07 09:11:53;;;;;;;1.92;1.83;;;23.20;56.10;;;;;;5004827;28;20121;-62
2023/06/07 09:14:19;;;;;;;2.85;1.85;;;23.30;55.00;;;;;;5003365;28;20045;-62
2023/06/07 09:16:54;;;;;;;3.22;2.38;;;23.40;55.70;;;;;;5000639;28;20121;-62
2023/06/07 09:19:50;;;;;;;2.47;1.90;;;23.50;54.00;;;;;;5003413;28;20038;-62
2023/06/07 09:22:22;;;;;;;;;;;23.60;53.40;;;;;;4985561;28;20043;-62
2023/06/07 09:24:47;;;;;;;4.05;2.17;;;23.80;54.80;;;;;;4997129;28;19921;-62
2023/06/07 09:27:13;;;;;;;2.80;2.42;;;23.80;54.10;;;;;;5000799;28;20049;-62
2023/06/07 09:29:41;;;;;;;2.85;2.33;;;24.00;52.20;;;;;;5006493;28;20041;-62
2023/06/07 09:32:21;;;;;;;2.40;2.30;;;24.00;52.50;;;;;;5004605;28;20041;-61
2023/06/07 09:34:47;;;;;;;2.75;2.55;;;24.00;51.00;;;;;;5005991;28;22651;-61
2023/06/07 09:37:14;;;;;;;54.47;4.60;;;24.10;52.30;;;;;;5007639;28;20112;-62
2023/06/07 09:39:40;;;;;;;4.07;2.58;;;24.10;52.80;;;;;;5005867;28;20037;-60
2023/06/07 09:42:15;;;;;;;2.38;2.17;;;24.20;52.40;;;;;;5007542;28;20041;-62
2023/06/07 09:44:41;;;;;;;3.20;2.30;;;24.30;51.40;;;;;;5007146;28;20069;-62
2023/06/07 09:47:22;;;;;;;3.30;2.30;;;24.30;51.90;;;;;;5006765;28;20090;-61
2023/06/07 09:49:48;;;;;;;3.30;2.50;;;24.40;49.80;;;;;;5006625;28;20087;-60
2023/06/07 09:52:15;;;;;;;2.25;2.05;;;24.40;50.00;;;;;;5007491;28;20037;-62
2023/06/07 09:54:45;;;;;;;2.53;2.33;;;24.50;51.00;;;;;;5005296;28;20034;-61
2023/06/07 09:57:26;;;;;;;2.50;2.30;;;24.50;51.30;;;;;;5006559;28;20498;-62
2023/06/07 10:00:13;;;;;;;2.83;2.10;;;24.50;51.10;;;;;;5007170;28;20513;-60
2023/06/07 10:02:39;;;;;;;4.32;2.50;;;24.60;50.30;;;;;;5006628;28;20026;-62
2023/06/07 10:05:05;;;;;;;2.67;2.47;;;24.70;50.00;;;;;;5006660;28;20061;-62
2023/06/07 10:07:56;;;;;;;3.08;2.63;;;24.80;49.40;;;;;;5006967;28;20087;-62
2023/06/07 10:10:24;;;;;;;2.80;2.47;;;24.80;48.10;;;;;;5005997;28;20128;-62
2023/06/07 10:12:51;;;;;;;4.60;2.47;;;24.80;48.90;;;;;;5006179;28;20033;-61
2023/06/07 10:15:26;;;;;;;2.95;2.60;;;24.70;49.40;;;;;;5005134;28;20057;-62
2023/06/07 10:18:19;;;;;;;2.63;2.40;;;24.80;49.00;;;;;;5004524;28;20628;-61
2023/06/07 10:20:54;;;;;;;2.80;1.95;;;24.80;48.80;;;;;;5005372;28;20124;-61
2023/06/07 10:23:28;;;;;;;;;;;24.80;49.20;;;;;;5007084;28;20042;-62
2023/06/07 10:25:59;;;;;;;2.58;2.38;;;24.90;47.50;;;;;;5005563;28;19921;-61
2023/06/07 10:28:46;;;;;;;2.35;2.00;;;25.00;48.70;;;;;;5005508;28;20486;-62
2023/06/07 10:31:15;;;;;;;3.17;2.35;;;25.00;47.30;;;;;;5005948;28;20042;-62
2023/06/07 10:33:41;;;;;;;2.35;2.05;;;25.10;47.30;;;;;;5005486;28;20026;-62
2023/06/07 10:36:08;;;;;;;3.58;2.20;;;25.10;47.70;;;;;;5005407;28;20052;-61
2023/06/07 10:38:34;;;;;;;4.18;1.80;;;25.10;47.70;;;;;;5004681;28;20117;-61
2023/06/07 10:41:03;;;;;;;2.50;2.30;;;25.10;47.70;;;;;;5007079;28;20342;-61
2023/06/07 10:43:30;;;;;;;2.05;1.85;;;25.20;47.00;;;;;;5005828;28;20054;-61
2023/06/07 10:46:21;;;;;;;2.35;2.10;;;25.30;47.30;;;;;;5004349;28;20038;-59
2023/06/07 10:48:47;;;;;;;2.47;2.22;;;25.40;46.30;;;;;;5004942;28;20502;-60
2023/06/07 10:51:13;;;;;;;2.33;2.13;;;25.40;46.00;;;;;;5004557;28;20235;-61
2023/06/07 10:53:53;;;;;;;3.17;2.33;;;25.40;44.20;;;;;;5003571;28;20565;-63
2023/06/07 10:56:32;;;;;;;3.13;2.35;;;25.40;43.60;;;;;;4999621;28;20045;-62
2023/06/07 10:59:21;;;;;;;2.65;2.20;;;25.40;43.00;;;;;;5002784;28;20057;-62
2023/06/07 11:01:49;;;;;;;2.30;1.92;;;25.40;43.80;;;;;;5006814;28;20510;-61
2023/06/07 11:04:39;;;;;;;2.35;2.00;;;25.40;45.00;;;;;;4983736;28;20152;-61
2023/06/07 11:07:20;;;;;;;2.10;2.00;;;25.50;44.00;;;;;;5001733;28;20475;-62
2023/06/07 11:09:48;;;;;;;1.98;1.80;;;25.60;43.90;;;;;;5001100;28;20034;-62
2023/06/07 11:12:35;;;;;;;2.85;2.10;;;25.60;44.60;;;;;;5003864;28;20076;-62
2023/06/07 11:15:20;;;;;;;2.92;2.00;;;25.70;43.90;;;;;;5003946;28;20100;-62
2023/06/07 11:17:55;;;;;;;1.98;1.88;;;25.80;44.00;;;;;;5005683;28;20084;-61
2023/06/07 11:20:36;;;;;;;2.13;2.03;;;25.90;44.00;;;;;;5005172;28;20410;-62
2023/06/07 11:23:31;;;;;;;2.42;2.22;;;26.00;43.70;;;;;;5004978;28;20037;-63
2023/06/07 11:26:06;;;;;;;6.55;2.30;;;26.10;43.20;;;;;;5005974;28;20671;-62
2023/06/07 11:28:33;;;;;;;2.67;2.10;;;26.20;43.00;;;;;;5003947;28;20532;-62
2023/06/07 11:31:01;;;;;;;2.63;1.85;;;26.20;43.60;;;;;;5003139;28;20525;-62
2023/06/07 11:33:27;;;;;;;2.55;2.20;;;26.30;43.30;;;;;;5006005;28;20049;-62
2023/06/07 11:35:54;;;;;;;3.75;2.10;;;26.40;42.80;;;;;;5004186;28;20042;-62
2023/06/07 11:38:21;;;;;;;2.53;1.90;;;26.40;42.40;;;;;;5005039;28;20041;-61
2023/06/07 11:40:48;;;;;;;1.95;1.75;;;26.50;42.20;;;;;;5004791;28;20121;-62
2023/06/07 11:43:22;;;;;;;2.08;1.98;;;26.60;42.20;;;;;;5005792;28;20104;-61
2023/06/07 11:45:49;;;;;;;2.42;2.20;;;26.60;42.00;;;;;;5004476;28;20501;-62
2023/06/07 11:48:15;;;;;;;2.08;1.98;;;26.70;41.80;;;;;;5004816;28;20077;-61
2023/06/07 11:50:45;;;;;;;4.63;2.10;;;26.70;41.50;;;;;;5004246;28;20065;-62
2023/06/07 11:53:11;;;;;;;3.63;2.08;;;26.80;40.70;;;;;;5005480;28;20512;-62
2023/06/07 11:55:37;;;;;;;3.05;2.40;;;26.80;40.60;;;;;;5005071;28;20557;-61
2023/06/07 11:58:05;;;;;;;2.00;1.80;;;26.80;39.70;;;;;;5008844;28;20038;-63
2023/06/07 12:00:36;;;;;;;1.98;1.80;;;26.70;40.30;;;;;;4987414;28;20042;-61
2023/06/07 12:03:03;;;;;;;2.42;2.22;;;26.60;40.60;;;;;;5008028;28;20050;-61
2023/06/07 12:05:31;;;;;;;3.08;2.10;;;26.60;40.70;;;;;;5009244;28;20128;-61
2023/06/07 12:08:30;;;;;;;2.50;2.30;;;26.70;41.00;;;;;;5007998;28;20030;-62
2023/06/07 12:10:55;;;;;;;3.47;2.30;;;26.70;40.00;;;;;;4982853;28;20058;-62
2023/06/07 12:13:22;;;;;;;2.35;2.15;;;26.70;40.60;;;;;;5007321;28;20042;-61
2023/06/07 12:15:49;;;;;;;2.40;2.17;;;26.70;39.50;;;;;;5007792;28;20049;-62
2023/06/07 12:18:25;;;;;;;2.45;2.22;;;26.70;39.80;;;;;;5005300;28;20033;-63
2023/06/07 12:21:04;;;;;;;2.95;2.30;;;26.70;39.70;;;;;;5002814;28;20100;-63
2023/06/07 12:23:31;;;;;;;3.05;2.08;;;26.70;39.30;;;;;;5008243;28;20046;-63
2023/06/07 12:26:06;;;;;;;3.35;2.10;;;26.70;40.20;;;;;;5010131;28;20042;-61
2023/06/07 12:28:32;;;;;;;2.10;1.88;;;26.70;39.80;;;;;;5007099;28;20042;-62
2023/06/07 12:30:57;;;;;;;3.03;2.13;;;26.80;40.30;;;;;;5004052;28;20065;-62
2023/06/07 12:33:26;;;;;;;3.58;2.30;;;26.80;39.90;;;;;;5008789;28;20536;-62
2023/06/07 12:35:52;;;;;;;2.55;2.28;;;26.80;39.70;;;;;;5008755;28;20041;-62
2023/06/07 12:38:23;;;;;;;2.53;2.33;;;26.80;40.30;;;;;;5007425;28;20044;-62
2023/06/07 12:40:49;;;;;;;2.40;2.20;;;26.80;40.00;;;;;;5008223;28;20121;-62
2023/06/07 12:43:15;;;;;;;3.38;2.38;;;26.80;40.30;;;;;;5009207;28;20474;-62
2023/06/07 12:45:40;;;;;;;3.38;2.20;;;26.80;39.40;;;;;;5008492;28;20052;-62
2023/06/07 12:48:07;;;;;;;2.97;2.20;;;26.80;40.50;;;;;;5009438;28;20046;-62
2023/06/07 12:50:33;;;;;;;3.88;2.40;;;26.80;40.10;;;;;;5006982;28;20049;-63
2023/06/07 12:52:58;;;;;;;7.07;2.28;;;26.80;39.90;;;;;;5008068;28;20104;-62